createdAt,value
2022-10-19T00:01:00.622Z,54.41
2022-10-19T00:03:26.957Z,54.35
2022-10-19T00:05:53.289Z,54.33
2022-10-19T00:08:19.630Z,54.09
2022-10-19T00:10:45.960Z,54.18
2022-10-19T00:13:12.288Z,54.24
2022-10-19T00:15:38.604Z,54.32
2022-10-19T00:18:04.931Z,54.43
2022-10-19T00:20:31.278Z,54.35
2022-10-19T00:22:57.622Z,54.11
2022-10-19T00:25:23.950Z,54.13
2022-10-19T00:27:50.306Z,54.40
2022-10-19T00:30:16.655Z,54.26
2022-10-19T00:32:42.988Z,54.11
2022-10-19T00:35:09.312Z,53.96
2022-10-19T00:37:35.642Z,53.98
2022-10-19T00:40:01.981Z,54.12
2022-10-19T00:42:28.325Z,53.89
2022-10-19T00:44:54.658Z,53.81
2022-10-19T00:47:20.980Z,53.99
2022-10-19T00:49:47.324Z,54.22
2022-10-19T00:52:13.661Z,53.71
2022-10-19T00:54:40.005Z,53.67
2022-10-19T00:57:06.336Z,54.17
2022-10-19T00:59:32.686Z,53.75
2022-10-19T01:01:59.019Z,53.60
2022-10-19T01:04:25.357Z,53.54
2022-10-19T01:09:17.921Z,54.15
2022-10-19T01:11:44.253Z,53.71
2022-10-19T01:14:10.575Z,53.57
2022-10-19T01:16:36.897Z,53.47
2022-10-19T01:19:03.241Z,53.64
2022-10-19T01:21:29.582Z,53.50
2022-10-19T01:23:55.912Z,53.12
2022-10-19T01:26:22.246Z,53.33
2022-10-19T01:28:48.622Z,53.42
2022-10-19T01:31:15.041Z,53.15
2022-10-19T01:33:41.396Z,53.31
2022-10-19T01:36:07.728Z,53.30
2022-10-19T01:38:34.067Z,53.51
2022-10-19T01:41:00.392Z,53.14
2022-10-19T01:43:26.726Z,53.50
2022-10-19T01:45:53.058Z,53.36
2022-10-19T01:48:19.384Z,53.22
2022-10-19T01:50:45.708Z,53.07
2022-10-19T01:53:12.041Z,53.41
2022-10-19T01:55:38.384Z,53.18
2022-10-19T01:58:08.229Z,53.17
2022-10-19T02:00:35.976Z,53.04
2022-10-19T02:03:02.322Z,52.95
2022-10-19T02:05:28.655Z,52.98
2022-10-19T02:07:54.996Z,52.89
2022-10-19T02:10:21.325Z,53.15
2022-10-19T02:12:47.670Z,52.91
2022-10-19T02:15:14.174Z,52.83
2022-10-19T02:17:40.499Z,52.56
2022-10-19T02:20:06.837Z,52.67
2022-10-19T02:22:33.519Z,52.90
2022-10-19T02:25:00.143Z,52.86
2022-10-19T02:27:26.493Z,52.58
2022-10-19T02:29:52.825Z,52.42
2022-10-19T02:32:19.162Z,52.91
2022-10-19T02:34:45.496Z,52.87
2022-10-19T02:37:11.834Z,52.66
2022-10-19T02:39:38.168Z,52.62
2022-10-19T02:42:04.494Z,52.51
2022-10-19T02:44:30.837Z,52.66
2022-10-19T02:46:57.169Z,52.54
2022-10-19T02:49:23.509Z,52.29
2022-10-19T02:51:49.841Z,52.36
2022-10-19T02:54:16.179Z,52.12
2022-10-19T02:56:42.517Z,52.63
2022-10-19T02:59:08.843Z,52.55
2022-10-19T03:01:35.183Z,52.36
2022-10-19T03:04:01.530Z,52.38
2022-10-19T03:06:27.869Z,52.18
2022-10-19T03:08:54.193Z,52.33
2022-10-19T03:11:20.519Z,52.06
2022-10-19T03:16:14.109Z,52.25
2022-10-19T03:18:40.445Z,52.20
2022-10-19T03:21:06.781Z,52.16
2022-10-19T03:23:33.114Z,51.77
2022-10-19T03:25:59.450Z,51.99
2022-10-19T03:28:25.815Z,51.86
2022-10-19T03:30:52.154Z,51.80
2022-10-19T03:33:18.533Z,51.81
2022-10-19T03:35:44.913Z,51.79
2022-10-19T03:38:11.245Z,52.04
2022-10-19T03:40:37.584Z,51.68
2022-10-19T03:43:03.924Z,51.66
2022-10-19T03:45:30.264Z,51.46
2022-10-19T03:47:56.592Z,51.58
2022-10-19T03:50:22.934Z,51.79
2022-10-19T03:52:49.335Z,51.74
2022-10-19T03:55:15.761Z,51.90
2022-10-19T03:57:42.095Z,51.55
2022-10-19T04:00:08.447Z,51.56
2022-10-19T04:02:34.784Z,51.90
2022-10-19T04:05:01.126Z,52.64
2022-10-19T04:07:27.464Z,53.75
2022-10-19T04:09:53.803Z,53.90
2022-10-19T04:12:20.143Z,53.88
2022-10-19T04:14:56.985Z,54.27
2022-10-19T04:17:24.101Z,54.14
2022-10-19T04:19:50.440Z,54.03
2022-10-19T04:22:16.773Z,53.33
2022-10-19T04:24:43.108Z,53.82
2022-10-19T04:27:09.445Z,54.26
2022-10-19T04:29:35.788Z,51.97
2022-10-19T04:32:02.125Z,52.97
2022-10-19T04:34:28.458Z,53.26
2022-10-19T04:36:54.791Z,53.87
2022-10-19T04:39:21.138Z,55.13
2022-10-19T04:41:47.483Z,55.21
2022-10-19T04:44:13.906Z,55.76
2022-10-19T04:46:40.292Z,55.91
2022-10-19T04:49:06.677Z,56.12
2022-10-19T04:51:33.092Z,56.21
2022-10-19T04:53:59.935Z,55.92
2022-10-19T04:56:26.518Z,56.13
2022-10-19T04:58:52.852Z,55.70
2022-10-19T05:01:19.272Z,56.04
2022-10-19T05:03:45.687Z,56.33
2022-10-19T05:06:12.067Z,56.10
2022-10-19T05:08:38.403Z,56.32
2022-10-19T05:11:04.745Z,56.07
2022-10-19T05:13:31.084Z,56.04
2022-10-19T05:15:57.421Z,56.06
2022-10-19T05:18:23.770Z,56.35
2022-10-19T05:20:50.110Z,56.27
2022-10-19T05:23:16.458Z,56.11
2022-10-19T05:25:42.796Z,56.30
2022-10-19T05:28:09.134Z,56.20
2022-10-19T05:30:35.479Z,56.15
2022-10-19T05:33:01.830Z,56.26
2022-10-19T05:35:28.177Z,56.55
2022-10-19T05:37:54.512Z,56.34
2022-10-19T05:40:20.873Z,56.38
2022-10-19T05:42:47.204Z,56.32
2022-10-19T05:45:13.541Z,56.21
2022-10-19T05:47:39.871Z,56.05
2022-10-19T05:50:06.204Z,56.24
2022-10-19T05:52:32.549Z,56.25
2022-10-19T05:54:58.889Z,56.61
2022-10-19T05:57:25.224Z,56.19
2022-10-19T05:59:51.573Z,56.17
2022-10-19T06:02:17.905Z,56.18
2022-10-19T06:04:44.258Z,56.47
2022-10-19T06:07:10.606Z,56.24
2022-10-19T06:09:36.936Z,56.25
2022-10-19T06:12:03.285Z,56.52
2022-10-19T06:14:29.638Z,56.21
2022-10-19T06:16:55.958Z,56.24
2022-10-19T06:19:22.285Z,56.51
2022-10-19T06:21:48.663Z,56.32
2022-10-19T06:24:15.001Z,56.54
2022-10-19T06:26:41.338Z,56.72
2022-10-19T06:29:07.684Z,56.38
2022-10-19T06:31:34.043Z,56.59
2022-10-19T06:34:00.409Z,56.36
2022-10-19T06:36:26.769Z,56.40
2022-10-19T06:38:53.119Z,56.27
2022-10-19T06:41:19.479Z,56.43
2022-10-19T06:43:45.814Z,56.33
2022-10-19T06:46:12.154Z,56.62
2022-10-19T06:48:38.564Z,56.55
2022-10-19T06:51:06.289Z,56.42
2022-10-19T06:53:32.930Z,56.24
2022-10-19T06:55:59.278Z,56.40
2022-10-19T06:58:25.622Z,56.36
2022-10-19T07:00:52.006Z,56.44
2022-10-19T07:03:18.381Z,56.49
2022-10-19T07:05:44.716Z,56.60
2022-10-19T07:08:11.060Z,56.25
2022-10-19T07:10:37.427Z,56.12
2022-10-19T07:13:03.804Z,56.54
2022-10-19T07:15:30.210Z,56.42
2022-10-19T07:17:56.549Z,56.32
2022-10-19T07:20:22.884Z,56.42
2022-10-19T07:22:49.237Z,56.28
2022-10-19T07:25:15.576Z,56.21
2022-10-19T07:27:42.165Z,56.42
2022-10-19T07:30:08.690Z,56.15
2022-10-19T07:32:35.077Z,56.26
2022-10-19T07:35:01.419Z,56.21
2022-10-19T07:37:27.756Z,56.51
2022-10-19T07:39:54.092Z,56.24
2022-10-19T07:42:23.390Z,56.27
2022-10-19T07:44:49.723Z,56.14
2022-10-19T07:47:16.057Z,56.22
2022-10-19T07:49:42.398Z,56.21
2022-10-19T07:52:08.730Z,56.06
2022-10-19T07:54:35.076Z,56.13
2022-10-19T07:57:01.399Z,56.36
2022-10-19T07:59:27.740Z,56.27
2022-10-19T08:01:54.123Z,56.13
2022-10-19T08:07:06.833Z,56.25
2022-10-19T08:09:51.935Z,56.00
2022-10-19T08:12:19.462Z,56.00
2022-10-19T08:14:45.801Z,56.13
2022-10-19T08:17:12.144Z,56.17
2022-10-19T08:19:38.493Z,56.14
2022-10-19T08:22:04.811Z,55.95
2022-10-19T08:24:31.159Z,56.41
2022-10-19T08:26:57.484Z,56.30
2022-10-19T08:29:25.555Z,55.97
2022-10-19T08:31:54.149Z,55.84
2022-10-19T08:34:20.644Z,56.02
2022-10-19T08:36:47.012Z,56.29
2022-10-19T08:39:13.339Z,55.82
2022-10-19T08:41:39.709Z,55.85
2022-10-19T08:44:07.714Z,55.86
2022-10-19T08:46:36.384Z,55.91
2022-10-19T08:49:02.723Z,55.78
2022-10-19T08:51:29.049Z,55.98
2022-10-19T08:53:55.425Z,56.03
2022-10-19T08:56:45.873Z,55.69
2022-10-19T08:59:08.095Z,55.73
2022-10-19T09:01:36.920Z,55.63
2022-10-19T09:04:04.132Z,55.64
2022-10-19T09:06:30.460Z,55.78
2022-10-19T09:08:56.855Z,55.67
2022-10-19T09:11:23.207Z,55.77
2022-10-19T09:14:04.210Z,55.60
2022-10-19T09:16:31.662Z,55.75
2022-10-19T09:18:58.001Z,55.77
2022-10-19T09:21:31.002Z,55.59
2022-10-19T09:24:04.278Z,55.47
2022-10-19T09:26:30.612Z,55.26
2022-10-19T09:28:56.961Z,55.58
2022-10-19T09:31:23.279Z,55.46
2022-10-19T09:33:49.612Z,55.29
2022-10-19T09:36:22.555Z,55.38
2022-10-19T09:38:53.972Z,55.37
2022-10-19T09:41:20.319Z,55.39
2022-10-19T09:43:46.652Z,55.51
2022-10-19T09:46:19.777Z,54.97
2022-10-19T09:48:46.756Z,55.21
2022-10-19T09:51:13.107Z,55.34
2022-10-19T09:53:39.448Z,55.12
2022-10-19T09:56:05.815Z,55.06
2022-10-19T09:58:33.212Z,55.10
2022-10-19T10:00:59.820Z,55.03
2022-10-19T10:03:26.163Z,54.94
2022-10-19T10:05:52.499Z,55.06
2022-10-19T10:08:18.823Z,55.33
2022-10-19T10:10:45.147Z,55.12
2022-10-19T10:13:11.482Z,55.03
2022-10-19T10:15:37.814Z,55.12
2022-10-19T10:18:04.136Z,55.11
2022-10-19T10:20:30.473Z,54.89
2022-10-19T10:22:56.810Z,54.72
2022-10-19T10:25:23.153Z,54.71
2022-10-19T10:27:49.480Z,54.80
2022-10-19T10:30:15.829Z,54.62
2022-10-19T10:32:44.512Z,54.87
2022-10-19T10:35:13.632Z,55.11
2022-10-19T10:37:39.977Z,54.96
2022-10-19T10:40:06.314Z,54.92
2022-10-19T10:42:32.934Z,55.06
2022-10-19T10:44:59.554Z,55.45
2022-10-19T10:47:25.898Z,55.32
2022-10-19T10:49:52.221Z,55.46
2022-10-19T10:52:18.543Z,55.36
2022-10-19T10:54:44.886Z,55.43
2022-10-19T10:57:11.291Z,55.32
2022-10-19T10:59:39.431Z,55.57
2022-10-19T11:02:08.142Z,55.58
2022-10-19T11:04:34.497Z,55.40
2022-10-19T11:07:00.841Z,55.30
2022-10-19T11:09:27.190Z,55.54
2022-10-19T11:11:53.544Z,55.38
2022-10-19T11:14:19.894Z,55.41
2022-10-19T11:16:46.226Z,55.58
2022-10-19T11:19:12.617Z,55.48
2022-10-19T11:21:38.987Z,55.72
2022-10-19T11:24:05.316Z,55.50
2022-10-19T11:26:31.643Z,55.73
2022-10-19T11:28:57.994Z,55.69
2022-10-19T11:31:24.346Z,55.60
2022-10-19T11:33:50.664Z,55.63
2022-10-19T11:36:17.006Z,55.50
2022-10-19T11:38:43.358Z,55.46
2022-10-19T11:41:18.176Z,55.50
2022-10-19T11:43:45.117Z,55.63
2022-10-19T11:46:11.452Z,55.61
2022-10-19T11:48:40.373Z,55.51
2022-10-19T11:51:20.842Z,55.58
2022-10-19T11:53:48.288Z,55.33
2022-10-19T11:56:14.605Z,55.68
2022-10-19T11:58:40.942Z,55.52
2022-10-19T12:01:07.298Z,55.43
2022-10-19T12:03:33.637Z,55.52
2022-10-19T12:05:59.972Z,55.42
2022-10-19T12:08:26.348Z,55.30
2022-10-19T12:10:52.720Z,55.39
2022-10-19T12:13:19.055Z,55.25
2022-10-19T12:15:45.390Z,55.62
2022-10-19T12:18:11.750Z,55.50
2022-10-19T12:20:38.070Z,55.54
2022-10-19T12:23:04.423Z,55.31
2022-10-19T12:25:30.783Z,55.34
2022-10-19T12:27:57.125Z,55.44
2022-10-19T12:30:23.462Z,55.47
2022-10-19T12:32:53.475Z,55.56
2022-10-19T12:37:51.952Z,55.52
2022-10-19T12:40:18.275Z,55.61
2022-10-19T12:42:44.594Z,55.48
2022-10-19T12:45:10.940Z,55.44
2022-10-19T12:47:37.546Z,55.32
2022-10-19T12:50:04.092Z,55.34
2022-10-19T12:52:30.435Z,55.28
2022-10-19T12:54:56.767Z,55.28
2022-10-19T12:57:23.137Z,55.52
2022-10-19T12:59:49.476Z,55.52
2022-10-19T13:02:15.840Z,55.31
2022-10-19T13:04:42.164Z,55.54
2022-10-19T13:07:08.576Z,55.37
2022-10-19T13:09:34.976Z,55.44
2022-10-19T13:12:01.308Z,55.50
2022-10-19T13:14:27.646Z,55.47
2022-10-19T13:16:53.976Z,55.22
2022-10-19T13:19:20.322Z,55.36
2022-10-19T13:21:46.654Z,55.39
2022-10-19T13:24:13.002Z,55.42
2022-10-19T13:26:39.343Z,55.16
2022-10-19T13:29:05.672Z,55.18
2022-10-19T13:31:31.991Z,55.37
2022-10-19T13:33:58.325Z,55.08
2022-10-19T13:36:24.667Z,55.27
2022-10-19T13:38:50.991Z,55.17
2022-10-19T13:41:17.334Z,55.04
2022-10-19T13:43:43.677Z,55.16
2022-10-19T13:46:10.012Z,55.07
2022-10-19T13:48:36.355Z,54.80
2022-10-19T13:51:02.692Z,55.14
2022-10-19T13:53:29.012Z,55.08
2022-10-19T13:55:55.331Z,54.94
2022-10-19T13:58:21.665Z,54.91
2022-10-19T14:00:48.011Z,55.10
2022-10-19T14:03:14.373Z,54.97
2022-10-19T14:05:40.721Z,54.78
2022-10-19T14:08:07.073Z,54.89
2022-10-19T14:10:56.273Z,55.04
2022-10-19T14:13:19.728Z,54.82
2022-10-19T14:15:46.062Z,54.96
2022-10-19T14:18:19.045Z,55.10
2022-10-19T14:20:45.757Z,55.02
2022-10-19T14:23:12.089Z,55.04
2022-10-19T14:25:38.412Z,54.91
2022-10-19T14:28:04.745Z,55.00
2022-10-19T14:30:31.076Z,54.85
2022-10-19T14:33:01.135Z,54.95
2022-10-19T14:35:28.758Z,55.02
2022-10-19T14:37:55.087Z,55.15
2022-10-19T14:40:26.361Z,55.08
2022-10-19T14:42:54.251Z,55.07
2022-10-19T14:45:20.585Z,54.88
2022-10-19T14:47:46.925Z,54.85
2022-10-19T14:50:13.257Z,54.70
2022-10-19T14:52:39.597Z,54.73
2022-10-19T14:55:05.926Z,54.80
2022-10-19T14:57:32.549Z,54.84
2022-10-19T14:59:59.136Z,54.53
2022-10-19T15:02:25.473Z,54.84
2022-10-19T15:04:51.805Z,54.92
2022-10-19T15:07:18.140Z,54.74
2022-10-19T15:09:48.121Z,54.69
2022-10-19T15:12:14.929Z,54.90
2022-10-19T15:14:41.268Z,54.47
2022-10-19T15:17:07.600Z,54.47
2022-10-19T15:19:33.939Z,54.53
2022-10-19T15:22:00.265Z,54.75
2022-10-19T15:24:26.589Z,54.47
2022-10-19T15:27:01.872Z,54.76
2022-10-19T15:29:33.190Z,54.53
2022-10-19T15:31:59.513Z,54.76
2022-10-19T15:34:25.845Z,54.45
2022-10-19T15:36:52.181Z,54.51
2022-10-19T15:39:32.687Z,54.62
2022-10-19T15:42:03.332Z,54.47
2022-10-19T15:44:29.659Z,54.68
2022-10-19T15:46:55.987Z,54.53
2022-10-19T15:49:22.318Z,54.52
2022-10-19T15:51:48.653Z,54.41
2022-10-19T15:54:14.990Z,54.47
2022-10-19T15:56:41.312Z,54.62
2022-10-19T15:59:07.652Z,54.50
2022-10-19T16:01:34.091Z,54.68
2022-10-19T16:04:00.478Z,54.45
2022-10-19T16:06:26.823Z,54.60
2022-10-19T16:08:53.239Z,54.57
2022-10-19T16:11:19.618Z,54.34
2022-10-19T16:13:45.933Z,54.51
2022-10-19T16:16:12.272Z,54.31
2022-10-19T16:18:38.596Z,54.21
2022-10-19T16:21:04.935Z,54.42
2022-10-19T16:23:31.271Z,54.42
2022-10-19T16:25:57.602Z,54.46
2022-10-19T16:28:23.932Z,54.30
2022-10-19T16:30:50.265Z,54.34
2022-10-19T16:33:16.615Z,54.10
2022-10-19T16:35:42.974Z,54.31
2022-10-19T16:38:09.301Z,54.29
2022-10-19T16:40:35.655Z,54.44
2022-10-19T16:43:02.129Z,54.23
2022-10-19T16:45:28.472Z,54.29
2022-10-19T16:47:54.805Z,54.46
2022-10-19T16:50:21.138Z,54.08
2022-10-19T16:52:47.469Z,54.42
2022-10-19T16:55:13.796Z,54.24
2022-10-19T16:57:40.137Z,54.56
2022-10-19T17:00:06.458Z,54.36
2022-10-19T17:02:33.040Z,54.54
2022-10-19T17:04:59.645Z,54.63
2022-10-19T17:07:25.965Z,54.47
2022-10-19T17:09:54.639Z,54.56
2022-10-19T17:12:21.286Z,54.61
2022-10-19T17:14:47.617Z,54.53
2022-10-19T17:17:13.938Z,54.36
2022-10-19T17:19:40.268Z,54.61
2022-10-19T17:22:06.610Z,54.58
2022-10-19T17:24:32.981Z,55.08
2022-10-19T17:26:59.332Z,54.92
2022-10-19T17:29:25.672Z,55.00
2022-10-19T17:31:52.030Z,54.81
2022-10-19T17:34:18.373Z,54.74
2022-10-19T17:36:44.898Z,54.55
2022-10-19T17:39:11.365Z,54.72
2022-10-19T17:41:37.719Z,54.82
2022-10-19T17:44:04.091Z,54.72
2022-10-19T17:46:30.548Z,54.82
2022-10-19T17:48:56.902Z,54.64
2022-10-19T17:51:23.251Z,54.90
2022-10-19T17:53:49.587Z,55.02
2022-10-19T17:56:15.929Z,54.93
2022-10-19T17:58:42.264Z,54.73
2022-10-19T18:01:08.601Z,54.94
2022-10-19T18:03:34.947Z,54.80
2022-10-19T18:06:01.332Z,54.70
2022-10-19T18:08:27.736Z,54.64
2022-10-19T18:10:54.096Z,54.65
2022-10-19T18:13:20.514Z,54.70
2022-10-19T18:15:46.867Z,54.88
2022-10-19T18:18:13.205Z,54.98
2022-10-19T18:20:39.535Z,54.95
2022-10-19T18:23:05.889Z,55.06
2022-10-19T18:25:52.887Z,55.13
2022-10-19T18:28:18.543Z,54.99
2022-10-19T18:30:45.356Z,54.96
2022-10-19T18:33:11.782Z,54.72
2022-10-19T18:35:38.131Z,55.04
2022-10-19T18:38:04.529Z,55.07
2022-10-19T18:40:30.904Z,54.96
2022-10-19T18:42:57.249Z,54.99
2022-10-19T18:45:23.583Z,55.00
2022-10-19T18:47:49.941Z,55.04
2022-10-19T18:52:47.540Z,54.97
2022-10-19T18:55:13.883Z,54.85
2022-10-19T18:57:40.227Z,55.19
2022-10-19T19:00:06.564Z,54.99
2022-10-19T19:02:46.537Z,54.90
2022-10-19T19:05:13.627Z,55.01
2022-10-19T19:07:39.974Z,55.26
2022-10-19T19:10:06.327Z,54.91
2022-10-19T19:12:32.894Z,55.10
2022-10-19T19:14:59.565Z,54.92
2022-10-19T19:17:25.906Z,54.93
2022-10-19T19:19:52.242Z,55.24
2022-10-19T19:22:18.573Z,55.59
2022-10-19T19:24:44.923Z,54.99
2022-10-19T19:27:11.270Z,55.20
2022-10-19T19:29:37.609Z,55.18
2022-10-19T19:32:03.952Z,55.13
2022-10-19T19:34:30.316Z,55.18
2022-10-19T19:36:56.664Z,55.06
2022-10-19T19:39:22.996Z,55.19
2022-10-19T19:41:49.387Z,54.93
2022-10-19T19:44:15.739Z,55.15
2022-10-19T19:46:42.079Z,54.98
2022-10-19T19:49:08.442Z,54.88
2022-10-19T19:51:34.852Z,55.01
2022-10-19T19:54:01.221Z,54.93
2022-10-19T19:56:28.571Z,55.08
2022-10-19T19:58:55.276Z,55.09
2022-10-19T20:01:21.733Z,54.99
2022-10-19T20:03:48.166Z,54.97
2022-10-19T20:06:14.518Z,54.96
2022-10-19T20:08:40.938Z,55.13
2022-10-19T20:11:07.333Z,55.10
2022-10-19T20:13:33.671Z,55.03
2022-10-19T20:16:00.003Z,54.97
2022-10-19T20:18:26.747Z,55.24
2022-10-19T20:20:53.174Z,55.33
2022-10-19T20:23:19.522Z,55.23
2022-10-19T20:25:45.860Z,55.25
2022-10-19T20:28:12.192Z,55.03
2022-10-19T20:30:38.542Z,55.05
2022-10-19T20:33:04.883Z,55.19
2022-10-19T20:35:31.233Z,55.10
2022-10-19T20:37:57.603Z,55.18
2022-10-19T20:40:23.978Z,55.20
2022-10-19T20:42:50.355Z,55.10
2022-10-19T20:45:16.696Z,55.37
2022-10-19T20:47:43.027Z,54.99
2022-10-19T20:50:09.375Z,55.08
2022-10-19T20:52:35.972Z,55.09
2022-10-19T20:55:02.523Z,55.20
2022-10-19T20:57:28.924Z,55.16
2022-10-19T20:59:55.261Z,55.15
2022-10-19T21:02:21.602Z,55.29
2022-10-19T21:04:47.946Z,55.11
2022-10-19T21:07:14.281Z,55.11
2022-10-19T21:09:40.639Z,55.32
2022-10-19T21:12:06.978Z,55.13
2022-10-19T21:14:33.415Z,55.30
2022-10-19T21:16:59.801Z,55.29
2022-10-19T21:19:26.162Z,55.12
2022-10-19T21:21:52.504Z,55.30
2022-10-19T21:24:18.839Z,55.26
2022-10-19T21:26:45.268Z,55.05
2022-10-19T21:29:11.640Z,55.16
2022-10-19T21:31:37.980Z,55.20
2022-10-19T21:34:04.318Z,55.21
2022-10-19T21:36:30.648Z,55.21
2022-10-19T21:38:57.019Z,55.33
2022-10-19T21:41:26.201Z,55.19
2022-10-19T21:43:52.986Z,55.40
2022-10-19T21:46:19.327Z,55.19
2022-10-19T21:48:45.678Z,55.23
2022-10-19T21:51:12.025Z,55.25
2022-10-19T21:53:38.374Z,55.12
2022-10-19T21:56:04.722Z,55.40
2022-10-19T21:58:31.066Z,55.45
2022-10-19T22:00:57.410Z,55.23
2022-10-19T22:03:23.743Z,55.21
2022-10-19T22:05:50.083Z,55.54
2022-10-19T22:08:16.420Z,55.42
2022-10-19T22:10:42.766Z,55.38
2022-10-19T22:13:09.112Z,55.41
2022-10-19T22:15:35.465Z,55.50
2022-10-19T22:18:01.793Z,55.47
2022-10-19T22:20:28.128Z,55.66
2022-10-19T22:22:55.070Z,55.57
2022-10-19T22:25:21.517Z,55.56
2022-10-19T22:27:47.865Z,55.54
2022-10-19T22:30:14.207Z,55.58
2022-10-19T22:32:40.553Z,55.65
2022-10-19T22:35:06.888Z,55.60
2022-10-19T22:37:33.226Z,55.37
2022-10-19T22:39:59.569Z,55.54
2022-10-19T22:42:25.901Z,55.57
2022-10-19T22:44:52.246Z,55.42
2022-10-19T22:47:18.576Z,55.44
2022-10-19T22:49:44.903Z,55.51
2022-10-19T22:52:11.233Z,55.59
2022-10-19T22:54:37.572Z,55.75
2022-10-19T22:57:03.913Z,55.80
2022-10-19T22:59:30.257Z,55.60
2022-10-19T23:01:56.631Z,55.53
2022-10-19T23:04:23.041Z,55.63
2022-10-19T23:06:49.380Z,55.79
2022-10-19T23:09:15.708Z,55.68
2022-10-19T23:11:42.040Z,55.46
2022-10-19T23:14:08.373Z,55.69
2022-10-19T23:16:34.709Z,55.80
2022-10-19T23:19:01.058Z,55.65
2022-10-19T23:21:27.401Z,55.60
2022-10-19T23:23:53.749Z,55.75
2022-10-19T23:26:20.094Z,55.92
2022-10-19T23:28:46.438Z,55.73
2022-10-19T23:31:12.759Z,55.64
2022-10-19T23:33:39.108Z,55.81
2022-10-19T23:36:05.454Z,55.85
2022-10-19T23:38:31.789Z,55.83
2022-10-19T23:40:58.137Z,55.68
2022-10-19T23:43:24.545Z,55.90
2022-10-19T23:45:50.912Z,55.67
2022-10-19T23:48:17.254Z,55.40
2022-10-19T23:50:43.590Z,55.66
2022-10-19T23:53:09.915Z,55.84
2022-10-19T23:55:36.239Z,55.86
2022-10-19T23:58:02.580Z,55.76
